sensor_id;sensor_type;location;lat;lon;timestamp;P1;durP1;ratioP1;P2;durP2;ratioP2
11203;SDS011;5659;49.408;11.116;2023-05-14T00:01:41;26.57;;;18.67;;
11203;SDS011;5659;49.408;11.116;2023-05-14T00:04:07;22.83;;;18.13;;
11203;SDS011;5659;49.408;11.116;2023-05-14T00:06:33;25.93;;;18.10;;
11203;SDS011;5659;49.408;11.116;2023-05-14T00:08:59;23.43;;;18.03;;
11203;SDS011;5659;49.408;11.116;2023-05-14T00:11:25;24.30;;;18.33;;
11203;SDS011;5659;49.408;11.116;2023-05-14T00:13:51;30.07;;;18.67;;
11203;SDS011;5659;49.408;11.116;2023-05-14T00:16:17;29.97;;;18.43;;
11203;SDS011;5659;49.408;11.116;2023-05-14T00:18:43;25.37;;;18.50;;
11203;SDS011;5659;49.408;11.116;2023-05-14T00:21:09;25.27;;;18.57;;
11203;SDS011;5659;49.408;11.116;2023-05-14T00:23:35;28.77;;;19.73;;
11203;SDS011;5659;49.408;11.116;2023-05-14T00:26:01;26.03;;;18.93;;
11203;SDS011;5659;49.408;11.116;2023-05-14T00:28:27;25.00;;;19.53;;
11203;SDS011;5659;49.408;11.116;2023-05-14T00:30:52;30.40;;;19.60;;
11203;SDS011;5659;49.408;11.116;2023-05-14T00:33:19;24.03;;;18.37;;
11203;SDS011;5659;49.408;11.116;2023-05-14T00:35:45;23.93;;;18.63;;
11203;SDS011;5659;49.408;11.116;2023-05-14T00:38:11;31.90;;;19.73;;
11203;SDS011;5659;49.408;11.116;2023-05-14T00:40:41;27.57;;;19.57;;
11203;SDS011;5659;49.408;11.116;2023-05-14T00:43:09;29.70;;;18.97;;
11203;SDS011;5659;49.408;11.116;2023-05-14T00:45:35;27.83;;;19.80;;
11203;SDS011;5659;49.408;11.116;2023-05-14T00:48:01;29.67;;;19.77;;
11203;SDS011;5659;49.408;11.116;2023-05-14T00:50:28;28.97;;;20.83;;
11203;SDS011;5659;49.408;11.116;2023-05-14T00:52:54;29.87;;;20.50;;
11203;SDS011;5659;49.408;11.116;2023-05-14T00:55:20;26.23;;;20.70;;
11203;SDS011;5659;49.408;11.116;2023-05-14T00:57:46;35.07;;;20.93;;
11203;SDS011;5659;49.408;11.116;2023-05-14T01:00:12;29.63;;;21.07;;
11203;SDS011;5659;49.408;11.116;2023-05-14T01:02:38;30.83;;;21.10;;
11203;SDS011;5659;49.408;11.116;2023-05-14T01:05:04;30.00;;;21.23;;
11203;SDS011;5659;49.408;11.116;2023-05-14T01:10:14;33.43;;;22.87;;
11203;SDS011;5659;49.408;11.116;2023-05-14T01:12:45;27.50;;;20.20;;
11203;SDS011;5659;49.408;11.116;2023-05-14T01:15:18;28.57;;;21.27;;
11203;SDS011;5659;49.408;11.116;2023-05-14T01:17:47;27.63;;;20.77;;
11203;SDS011;5659;49.408;11.116;2023-05-14T01:20:13;31.93;;;20.50;;
11203;SDS011;5659;49.408;11.116;2023-05-14T01:22:39;27.03;;;20.30;;
11203;SDS011;5659;49.408;11.116;2023-05-14T01:25:06;33.07;;;20.93;;
11203;SDS011;5659;49.408;11.116;2023-05-14T01:30:18;25.53;;;18.60;;
11203;SDS011;5659;49.408;11.116;2023-05-14T01:32:47;25.87;;;18.60;;
11203;SDS011;5659;49.408;11.116;2023-05-14T01:35:13;25.47;;;18.67;;
11203;SDS011;5659;49.408;11.116;2023-05-14T01:37:39;28.43;;;17.97;;
11203;SDS011;5659;49.408;11.116;2023-05-14T01:40:06;21.80;;;17.40;;
11203;SDS011;5659;49.408;11.116;2023-05-14T01:42:33;24.77;;;17.90;;
11203;SDS011;5659;49.408;11.116;2023-05-14T01:45:00;23.63;;;17.33;;
11203;SDS011;5659;49.408;11.116;2023-05-14T01:47:26;22.90;;;18.33;;
11203;SDS011;5659;49.408;11.116;2023-05-14T01:49:52;24.40;;;17.40;;
11203;SDS011;5659;49.408;11.116;2023-05-14T01:52:18;24.70;;;17.53;;
11203;SDS011;5659;49.408;11.116;2023-05-14T01:54:45;24.20;;;16.63;;
11203;SDS011;5659;49.408;11.116;2023-05-14T01:57:11;26.00;;;16.97;;
11203;SDS011;5659;49.408;11.116;2023-05-14T01:59:37;22.67;;;16.37;;
11203;SDS011;5659;49.408;11.116;2023-05-14T02:02:03;26.17;;;16.50;;
11203;SDS011;5659;49.408;11.116;2023-05-14T02:04:29;24.97;;;16.37;;
11203;SDS011;5659;49.408;11.116;2023-05-14T02:06:55;21.13;;;15.73;;
11203;SDS011;5659;49.408;11.116;2023-05-14T02:09:21;20.77;;;16.00;;
11203;SDS011;5659;49.408;11.116;2023-05-14T02:11:47;23.67;;;16.63;;
11203;SDS011;5659;49.408;11.116;2023-05-14T02:14:13;23.90;;;16.00;;
11203;SDS011;5659;49.408;11.116;2023-05-14T02:16:39;21.70;;;16.20;;
11203;SDS011;5659;49.408;11.116;2023-05-14T02:19:05;22.13;;;16.63;;
11203;SDS011;5659;49.408;11.116;2023-05-14T02:21:31;22.30;;;16.70;;
11203;SDS011;5659;49.408;11.116;2023-05-14T02:23:57;21.10;;;15.43;;
11203;SDS011;5659;49.408;11.116;2023-05-14T02:26:23;19.70;;;15.47;;
11203;SDS011;5659;49.408;11.116;2023-05-14T02:28:49;24.00;;;17.50;;
11203;SDS011;5659;49.408;11.116;2023-05-14T02:31:15;20.83;;;15.30;;
11203;SDS011;5659;49.408;11.116;2023-05-14T02:33:43;21.77;;;16.23;;
11203;SDS011;5659;49.408;11.116;2023-05-14T02:36:09;26.40;;;15.87;;
11203;SDS011;5659;49.408;11.116;2023-05-14T02:38:35;24.47;;;15.70;;
11203;SDS011;5659;49.408;11.116;2023-05-14T02:41:01;20.87;;;15.37;;
11203;SDS011;5659;49.408;11.116;2023-05-14T02:43:27;24.53;;;16.60;;
11203;SDS011;5659;49.408;11.116;2023-05-14T02:45:52;22.27;;;16.37;;
11203;SDS011;5659;49.408;11.116;2023-05-14T02:48:18;20.50;;;15.40;;
11203;SDS011;5659;49.408;11.116;2023-05-14T02:50:44;23.17;;;16.17;;
11203;SDS011;5659;49.408;11.116;2023-05-14T02:53:10;19.77;;;15.57;;
11203;SDS011;5659;49.408;11.116;2023-05-14T02:55:36;18.23;;;15.23;;
11203;SDS011;5659;49.408;11.116;2023-05-14T02:58:02;22.27;;;16.77;;
11203;SDS011;5659;49.408;11.116;2023-05-14T03:00:28;23.17;;;16.07;;
11203;SDS011;5659;49.408;11.116;2023-05-14T03:02:54;21.67;;;17.27;;
11203;SDS011;5659;49.408;11.116;2023-05-14T03:05:20;23.33;;;16.43;;
11203;SDS011;5659;49.408;11.116;2023-05-14T03:07:46;20.77;;;15.63;;
11203;SDS011;5659;49.408;11.116;2023-05-14T03:10:12;20.33;;;16.30;;
11203;SDS011;5659;49.408;11.116;2023-05-14T03:12:38;18.87;;;14.93;;
11203;SDS011;5659;49.408;11.116;2023-05-14T03:15:04;21.90;;;16.80;;
11203;SDS011;5659;49.408;11.116;2023-05-14T03:17:31;24.37;;;16.30;;
11203;SDS011;5659;49.408;11.116;2023-05-14T03:19:57;20.83;;;15.87;;
11203;SDS011;5659;49.408;11.116;2023-05-14T03:22:23;25.43;;;16.17;;
11203;SDS011;5659;49.408;11.116;2023-05-14T03:24:49;21.50;;;15.30;;
11203;SDS011;5659;49.408;11.116;2023-05-14T03:27:15;20.33;;;15.20;;
11203;SDS011;5659;49.408;11.116;2023-05-14T03:29:41;19.37;;;15.97;;
11203;SDS011;5659;49.408;11.116;2023-05-14T03:32:07;19.97;;;14.93;;
11203;SDS011;5659;49.408;11.116;2023-05-14T03:34:33;21.77;;;16.30;;
11203;SDS011;5659;49.408;11.116;2023-05-14T03:36:59;17.70;;;15.03;;
11203;SDS011;5659;49.408;11.116;2023-05-14T03:39:25;17.00;;;14.40;;
11203;SDS011;5659;49.408;11.116;2023-05-14T03:41:50;19.40;;;15.37;;
11203;SDS011;5659;49.408;11.116;2023-05-14T03:44:16;16.53;;;14.73;;
11203;SDS011;5659;49.408;11.116;2023-05-14T03:46:42;19.77;;;14.60;;
11203;SDS011;5659;49.408;11.116;2023-05-14T03:49:08;17.33;;;14.43;;
11203;SDS011;5659;49.408;11.116;2023-05-14T03:51:34;22.03;;;14.87;;
11203;SDS011;5659;49.408;11.116;2023-05-14T03:54:01;19.43;;;14.53;;
11203;SDS011;5659;49.408;11.116;2023-05-14T03:56:27;16.33;;;14.03;;
11203;SDS011;5659;49.408;11.116;2023-05-14T03:58:53;23.00;;;14.07;;
11203;SDS011;5659;49.408;11.116;2023-05-14T04:01:19;17.27;;;14.40;;
11203;SDS011;5659;49.408;11.116;2023-05-14T04:03:45;19.83;;;14.00;;
11203;SDS011;5659;49.408;11.116;2023-05-14T04:06:11;17.83;;;14.07;;
11203;SDS011;5659;49.408;11.116;2023-05-14T04:08:37;17.70;;;14.87;;
11203;SDS011;5659;49.408;11.116;2023-05-14T04:11:03;19.63;;;14.50;;
11203;SDS011;5659;49.408;11.116;2023-05-14T04:13:29;16.77;;;14.07;;
11203;SDS011;5659;49.408;11.116;2023-05-14T04:15:55;17.53;;;14.80;;
11203;SDS011;5659;49.408;11.116;2023-05-14T04:18:21;20.60;;;14.43;;
11203;SDS011;5659;49.408;11.116;2023-05-14T04:20:47;19.30;;;14.13;;
11203;SDS011;5659;49.408;11.116;2023-05-14T04:23:13;19.80;;;14.17;;
11203;SDS011;5659;49.408;11.116;2023-05-14T04:25:39;17.73;;;13.30;;
11203;SDS011;5659;49.408;11.116;2023-05-14T04:28:06;15.73;;;13.67;;
11203;SDS011;5659;49.408;11.116;2023-05-14T04:30:32;17.00;;;13.13;;
11203;SDS011;5659;49.408;11.116;2023-05-14T04:32:57;17.17;;;13.23;;
11203;SDS011;5659;49.408;11.116;2023-05-14T04:35:23;19.17;;;13.83;;
11203;SDS011;5659;49.408;11.116;2023-05-14T04:37:49;15.27;;;12.17;;
11203;SDS011;5659;49.408;11.116;2023-05-14T04:40:15;14.60;;;13.10;;
11203;SDS011;5659;49.408;11.116;2023-05-14T04:42:42;16.03;;;12.17;;
11203;SDS011;5659;49.408;11.116;2023-05-14T04:45:08;12.90;;;11.60;;
11203;SDS011;5659;49.408;11.116;2023-05-14T04:47:34;15.60;;;11.53;;
11203;SDS011;5659;49.408;11.116;2023-05-14T04:50:00;15.17;;;11.90;;
11203;SDS011;5659;49.408;11.116;2023-05-14T04:52:26;13.30;;;10.60;;
11203;SDS011;5659;49.408;11.116;2023-05-14T04:54:52;14.10;;;10.90;;
11203;SDS011;5659;49.408;11.116;2023-05-14T04:57:19;11.83;;;10.30;;
11203;SDS011;5659;49.408;11.116;2023-05-14T04:59:45;14.70;;;10.37;;
11203;SDS011;5659;49.408;11.116;2023-05-14T05:02:11;11.70;;;10.13;;
11203;SDS011;5659;49.408;11.116;2023-05-14T05:04:37;17.30;;;11.13;;
11203;SDS011;5659;49.408;11.116;2023-05-14T05:07:03;12.17;;;10.43;;
11203;SDS011;5659;49.408;11.116;2023-05-14T05:09:30;13.40;;;11.23;;
11203;SDS011;5659;49.408;11.116;2023-05-14T05:11:56;14.73;;;10.87;;
11203;SDS011;5659;49.408;11.116;2023-05-14T05:14:22;13.00;;;10.37;;
11203;SDS011;5659;49.408;11.116;2023-05-14T05:16:48;12.13;;;10.20;;
11203;SDS011;5659;49.408;11.116;2023-05-14T05:19:14;12.03;;;10.53;;
11203;SDS011;5659;49.408;11.116;2023-05-14T05:21:40;12.13;;;10.33;;
11203;SDS011;5659;49.408;11.116;2023-05-14T05:24:06;14.17;;;10.20;;
11203;SDS011;5659;49.408;11.116;2023-05-14T05:26:32;13.80;;;10.33;;
11203;SDS011;5659;49.408;11.116;2023-05-14T05:29:01;13.13;;;10.17;;
11203;SDS011;5659;49.408;11.116;2023-05-14T05:31:27;13.10;;;9.13;;
11203;SDS011;5659;49.408;11.116;2023-05-14T05:33:53;11.33;;;10.13;;
11203;SDS011;5659;49.408;11.116;2023-05-14T05:36:19;15.57;;;9.47;;
11203;SDS011;5659;49.408;11.116;2023-05-14T05:38:44;11.63;;;9.10;;
11203;SDS011;5659;49.408;11.116;2023-05-14T05:41:10;10.53;;;9.17;;
11203;SDS011;5659;49.408;11.116;2023-05-14T05:43:36;13.20;;;9.20;;
11203;SDS011;5659;49.408;11.116;2023-05-14T05:46:02;11.77;;;9.57;;
11203;SDS011;5659;49.408;11.116;2023-05-14T05:48:28;10.43;;;9.13;;
11203;SDS011;5659;49.408;11.116;2023-05-14T05:50:54;15.07;;;9.50;;
11203;SDS011;5659;49.408;11.116;2023-05-14T05:53:20;11.70;;;9.47;;
11203;SDS011;5659;49.408;11.116;2023-05-14T05:55:46;16.07;;;9.77;;
11203;SDS011;5659;49.408;11.116;2023-05-14T05:58:12;10.57;;;8.30;;
11203;SDS011;5659;49.408;11.116;2023-05-14T06:00:41;12.27;;;9.20;;
11203;SDS011;5659;49.408;11.116;2023-05-14T06:03:07;9.30;;;8.37;;
11203;SDS011;5659;49.408;11.116;2023-05-14T06:05:33;10.53;;;9.03;;
11203;SDS011;5659;49.408;11.116;2023-05-14T06:07:59;10.00;;;8.63;;
11203;SDS011;5659;49.408;11.116;2023-05-14T06:10:25;9.77;;;8.20;;
11203;SDS011;5659;49.408;11.116;2023-05-14T06:12:53;9.10;;;7.50;;
11203;SDS011;5659;49.408;11.116;2023-05-14T06:15:19;9.17;;;8.00;;
11203;SDS011;5659;49.408;11.116;2023-05-14T06:17:45;12.60;;;8.17;;
11203;SDS011;5659;49.408;11.116;2023-05-14T06:20:11;8.97;;;8.07;;
11203;SDS011;5659;49.408;11.116;2023-05-14T06:22:37;9.13;;;8.03;;
11203;SDS011;5659;49.408;11.116;2023-05-14T06:25:03;8.83;;;7.50;;
11203;SDS011;5659;49.408;11.116;2023-05-14T06:27:29;9.63;;;7.73;;
11203;SDS011;5659;49.408;11.116;2023-05-14T06:29:55;7.82;;;6.95;;
11203;SDS011;5659;49.408;11.116;2023-05-14T06:32:21;12.03;;;7.47;;
11203;SDS011;5659;49.408;11.116;2023-05-14T06:34:47;9.13;;;7.37;;
11203;SDS011;5659;49.408;11.116;2023-05-14T06:37:13;9.20;;;7.00;;
11203;SDS011;5659;49.408;11.116;2023-05-14T06:39:39;7.85;;;6.88;;
11203;SDS011;5659;49.408;11.116;2023-05-14T06:42:12;8.40;;;6.97;;
11203;SDS011;5659;49.408;11.116;2023-05-14T06:44:38;8.60;;;6.75;;
11203;SDS011;5659;49.408;11.116;2023-05-14T06:47:04;7.72;;;6.47;;
11203;SDS011;5659;49.408;11.116;2023-05-14T06:49:32;10.73;;;6.78;;
11203;SDS011;5659;49.408;11.116;2023-05-14T06:51:58;7.93;;;6.72;;
11203;SDS011;5659;49.408;11.116;2023-05-14T06:54:24;7.28;;;6.43;;
11203;SDS011;5659;49.408;11.116;2023-05-14T06:56:50;7.53;;;6.18;;
11203;SDS011;5659;49.408;11.116;2023-05-14T06:59:16;9.63;;;6.15;;
11203;SDS011;5659;49.408;11.116;2023-05-14T07:01:42;7.97;;;5.90;;
11203;SDS011;5659;49.408;11.116;2023-05-14T07:04:08;7.75;;;5.60;;
11203;SDS011;5659;49.408;11.116;2023-05-14T07:06:34;7.13;;;6.43;;
11203;SDS011;5659;49.408;11.116;2023-05-14T07:09:00;7.93;;;6.28;;
11203;SDS011;5659;49.408;11.116;2023-05-14T07:11:27;7.57;;;6.32;;
11203;SDS011;5659;49.408;11.116;2023-05-14T07:13:53;6.90;;;6.20;;
11203;SDS011;5659;49.408;11.116;2023-05-14T07:16:19;6.80;;;5.70;;
11203;SDS011;5659;49.408;11.116;2023-05-14T07:18:45;10.00;;;6.22;;
11203;SDS011;5659;49.408;11.116;2023-05-14T07:21:11;7.28;;;6.03;;
11203;SDS011;5659;49.408;11.116;2023-05-14T07:23:36;9.63;;;6.00;;
11203;SDS011;5659;49.408;11.116;2023-05-14T07:26:06;8.13;;;6.13;;
11203;SDS011;5659;49.408;11.116;2023-05-14T07:28:32;6.10;;;5.50;;
11203;SDS011;5659;49.408;11.116;2023-05-14T07:30:58;7.05;;;5.35;;
11203;SDS011;5659;49.408;11.116;2023-05-14T07:33:24;6.57;;;5.50;;
11203;SDS011;5659;49.408;11.116;2023-05-14T07:35:51;7.00;;;5.20;;
11203;SDS011;5659;49.408;11.116;2023-05-14T07:38:18;6.95;;;5.57;;
11203;SDS011;5659;49.408;11.116;2023-05-14T07:40:44;6.43;;;5.40;;
11203;SDS011;5659;49.408;11.116;2023-05-14T07:43:10;7.65;;;5.10;;
11203;SDS011;5659;49.408;11.116;2023-05-14T07:45:36;5.63;;;4.93;;
11203;SDS011;5659;49.408;11.116;2023-05-14T07:48:05;7.28;;;5.32;;
11203;SDS011;5659;49.408;11.116;2023-05-14T07:50:31;6.43;;;5.70;;
11203;SDS011;5659;49.408;11.116;2023-05-14T07:52:57;7.47;;;5.40;;
11203;SDS011;5659;49.408;11.116;2023-05-14T07:55:23;6.88;;;5.13;;
11203;SDS011;5659;49.408;11.116;2023-05-14T07:57:49;8.05;;;5.10;;
11203;SDS011;5659;49.408;11.116;2023-05-14T08:00:15;6.88;;;5.30;;
11203;SDS011;5659;49.408;11.116;2023-05-14T08:02:42;5.97;;;5.13;;
11203;SDS011;5659;49.408;11.116;2023-05-14T08:05:08;5.75;;;5.07;;
11203;SDS011;5659;49.408;11.116;2023-05-14T08:07:34;5.18;;;4.55;;
11203;SDS011;5659;49.408;11.116;2023-05-14T08:10:00;6.93;;;5.20;;
11203;SDS011;5659;49.408;11.116;2023-05-14T08:12:26;9.73;;;5.75;;
11203;SDS011;5659;49.408;11.116;2023-05-14T08:14:53;6.45;;;5.50;;
11203;SDS011;5659;49.408;11.116;2023-05-14T08:17:20;12.88;;;5.28;;
11203;SDS011;5659;49.408;11.116;2023-05-14T08:19:46;6.18;;;5.55;;
11203;SDS011;5659;49.408;11.116;2023-05-14T08:22:12;5.78;;;4.85;;
11203;SDS011;5659;49.408;11.116;2023-05-14T08:24:37;5.85;;;5.05;;
11203;SDS011;5659;49.408;11.116;2023-05-14T08:27:04;5.00;;;4.50;;
11203;SDS011;5659;49.408;11.116;2023-05-14T08:29:30;4.68;;;4.28;;
11203;SDS011;5659;49.408;11.116;2023-05-14T08:31:56;5.90;;;5.05;;
11203;SDS011;5659;49.408;11.116;2023-05-14T08:34:22;7.68;;;5.10;;
11203;SDS011;5659;49.408;11.116;2023-05-14T08:36:48;6.63;;;5.30;;
11203;SDS011;5659;49.408;11.116;2023-05-14T08:39:14;7.07;;;5.05;;
11203;SDS011;5659;49.408;11.116;2023-05-14T08:41:40;5.15;;;4.65;;
11203;SDS011;5659;49.408;11.116;2023-05-14T08:44:14;7.20;;;5.10;;
11203;SDS011;5659;49.408;11.116;2023-05-14T08:46:42;7.32;;;4.80;;
11203;SDS011;5659;49.408;11.116;2023-05-14T08:49:13;5.75;;;4.70;;
11203;SDS011;5659;49.408;11.116;2023-05-14T08:51:43;5.18;;;4.68;;
11203;SDS011;5659;49.408;11.116;2023-05-14T08:54:12;5.88;;;5.07;;
11203;SDS011;5659;49.408;11.116;2023-05-14T08:56:41;7.78;;;5.38;;
11203;SDS011;5659;49.408;11.116;2023-05-14T08:59:08;5.65;;;4.50;;
11203;SDS011;5659;49.408;11.116;2023-05-14T09:01:36;5.32;;;4.50;;
11203;SDS011;5659;49.408;11.116;2023-05-14T09:04:03;7.43;;;5.05;;
11203;SDS011;5659;49.408;11.116;2023-05-14T09:06:32;5.82;;;4.80;;
11203;SDS011;5659;49.408;11.116;2023-05-14T09:08:58;5.63;;;4.45;;
11203;SDS011;5659;49.408;11.116;2023-05-14T09:11:24;4.95;;;4.43;;
11203;SDS011;5659;49.408;11.116;2023-05-14T09:13:50;5.93;;;4.65;;
11203;SDS011;5659;49.408;11.116;2023-05-14T09:16:16;6.55;;;4.72;;
11203;SDS011;5659;49.408;11.116;2023-05-14T09:18:43;5.25;;;4.30;;
11203;SDS011;5659;49.408;11.116;2023-05-14T09:21:11;5.78;;;4.60;;
11203;SDS011;5659;49.408;11.116;2023-05-14T09:23:40;5.30;;;4.72;;
11203;SDS011;5659;49.408;11.116;2023-05-14T09:26:07;5.05;;;4.28;;
11203;SDS011;5659;49.408;11.116;2023-05-14T09:28:33;6.18;;;4.93;;
11203;SDS011;5659;49.408;11.116;2023-05-14T09:30:59;6.28;;;4.65;;
11203;SDS011;5659;49.408;11.116;2023-05-14T09:33:27;6.40;;;4.88;;
11203;SDS011;5659;49.408;11.116;2023-05-14T09:35:57;5.00;;;4.45;;
11203;SDS011;5659;49.408;11.116;2023-05-14T09:38:28;6.15;;;4.85;;
11203;SDS011;5659;49.408;11.116;2023-05-14T09:40:54;4.82;;;4.18;;
11203;SDS011;5659;49.408;11.116;2023-05-14T09:43:20;5.20;;;4.47;;
11203;SDS011;5659;49.408;11.116;2023-05-14T09:45:46;5.70;;;4.68;;
11203;SDS011;5659;49.408;11.116;2023-05-14T09:48:12;5.07;;;4.57;;
11203;SDS011;5659;49.408;11.116;2023-05-14T10:03:06;6.80;;;4.90;;
11203;SDS011;5659;49.408;11.116;2023-05-14T10:05:34;6.15;;;4.38;;
11203;SDS011;5659;49.408;11.116;2023-05-14T10:08:00;5.38;;;4.47;;
11203;SDS011;5659;49.408;11.116;2023-05-14T10:10:28;4.88;;;4.38;;
11203;SDS011;5659;49.408;11.116;2023-05-14T10:12:57;5.60;;;4.25;;
11203;SDS011;5659;49.408;11.116;2023-05-14T10:15:46;6.85;;;4.18;;
11203;SDS011;5659;49.408;11.116;2023-05-14T10:18:15;4.97;;;4.25;;
11203;SDS011;5659;49.408;11.116;2023-05-14T10:20:41;4.80;;;3.97;;
11203;SDS011;5659;49.408;11.116;2023-05-14T10:23:11;5.43;;;4.18;;
11203;SDS011;5659;49.408;11.116;2023-05-14T10:50:15;4.35;;;3.50;;
11203;SDS011;5659;49.408;11.116;2023-05-14T10:52:56;3.58;;;3.28;;
11203;SDS011;5659;49.408;11.116;2023-05-14T10:56:01;7.90;;;5.20;;
11203;SDS011;5659;49.408;11.116;2023-05-14T10:58:50;4.03;;;3.63;;
11203;SDS011;5659;49.408;11.116;2023-05-14T11:01:34;4.47;;;3.70;;
11203;SDS011;5659;49.408;11.116;2023-05-14T11:10:34;5.20;;;3.38;;
11203;SDS011;5659;49.408;11.116;2023-05-14T11:13:18;4.78;;;3.40;;
11203;SDS011;5659;49.408;11.116;2023-05-14T11:16:13;4.18;;;3.78;;
11203;SDS011;5659;49.408;11.116;2023-05-14T11:18:42;5.30;;;3.42;;
11203;SDS011;5659;49.408;11.116;2023-05-14T11:21:08;4.88;;;3.80;;
11203;SDS011;5659;49.408;11.116;2023-05-14T11:23:34;3.67;;;3.38;;
11203;SDS011;5659;49.408;11.116;2023-05-14T11:26:00;5.28;;;3.50;;
11203;SDS011;5659;49.408;11.116;2023-05-14T11:28:26;5.53;;;3.42;;
11203;SDS011;5659;49.408;11.116;2023-05-14T11:30:52;4.13;;;3.72;;
11203;SDS011;5659;49.408;11.116;2023-05-14T11:33:19;5.60;;;3.65;;
11203;SDS011;5659;49.408;11.116;2023-05-14T11:35:48;5.65;;;3.80;;
11203;SDS011;5659;49.408;11.116;2023-05-14T11:38:14;5.28;;;3.50;;
11203;SDS011;5659;49.408;11.116;2023-05-14T11:40:41;4.05;;;3.53;;
11203;SDS011;5659;49.408;11.116;2023-05-14T11:43:07;5.55;;;3.28;;
11203;SDS011;5659;49.408;11.116;2023-05-14T11:45:33;5.18;;;3.10;;
11203;SDS011;5659;49.408;11.116;2023-05-14T11:48:00;6.05;;;3.00;;
11203;SDS011;5659;49.408;11.116;2023-05-14T11:50:26;4.05;;;3.17;;
11203;SDS011;5659;49.408;11.116;2023-05-14T11:52:55;3.72;;;3.35;;
11203;SDS011;5659;49.408;11.116;2023-05-14T11:55:21;4.80;;;3.17;;
11203;SDS011;5659;49.408;11.116;2023-05-14T11:57:47;4.13;;;3.72;;
11203;SDS011;5659;49.408;11.116;2023-05-14T12:00:13;3.83;;;3.42;;
11203;SDS011;5659;49.408;11.116;2023-05-14T12:02:46;4.82;;;3.78;;
11203;SDS011;5659;49.408;11.116;2023-05-14T12:05:12;6.53;;;4.38;;
11203;SDS011;5659;49.408;11.116;2023-05-14T12:07:38;5.10;;;4.40;;
11203;SDS011;5659;49.408;11.116;2023-05-14T12:10:05;4.32;;;3.88;;
11203;SDS011;5659;49.408;11.116;2023-05-14T12:12:35;4.97;;;3.67;;
11203;SDS011;5659;49.408;11.116;2023-05-14T12:15:01;5.00;;;3.38;;
11203;SDS011;5659;49.408;11.116;2023-05-14T12:17:27;4.25;;;3.33;;
11203;SDS011;5659;49.408;11.116;2023-05-14T12:19:53;4.35;;;3.40;;
11203;SDS011;5659;49.408;11.116;2023-05-14T12:22:21;3.50;;;3.10;;
11203;SDS011;5659;49.408;11.116;2023-05-14T12:27:51;4.82;;;3.53;;
11203;SDS011;5659;49.408;11.116;2023-05-14T12:30:17;3.97;;;3.40;;
11203;SDS011;5659;49.408;11.116;2023-05-14T12:32:43;4.43;;;3.58;;
11203;SDS011;5659;49.408;11.116;2023-05-14T12:35:09;6.35;;;3.25;;
11203;SDS011;5659;49.408;11.116;2023-05-14T12:37:35;5.00;;;3.15;;
11203;SDS011;5659;49.408;11.116;2023-05-14T12:40:03;4.03;;;3.47;;
11203;SDS011;5659;49.408;11.116;2023-05-14T12:42:33;3.58;;;3.28;;
11203;SDS011;5659;49.408;11.116;2023-05-14T12:44:59;4.80;;;3.17;;
11203;SDS011;5659;49.408;11.116;2023-05-14T12:47:29;3.60;;;3.30;;
11203;SDS011;5659;49.408;11.116;2023-05-14T12:49:56;3.92;;;3.50;;
11203;SDS011;5659;49.408;11.116;2023-05-14T12:52:22;4.13;;;3.58;;
11203;SDS011;5659;49.408;11.116;2023-05-14T12:54:48;5.60;;;3.65;;
11203;SDS011;5659;49.408;11.116;2023-05-14T12:57:14;3.60;;;3.30;;
11203;SDS011;5659;49.408;11.116;2023-05-14T12:59:40;3.72;;;3.38;;
11203;SDS011;5659;49.408;11.116;2023-05-14T13:02:06;4.05;;;3.42;;
11203;SDS011;5659;49.408;11.116;2023-05-14T13:04:31;4.50;;;3.92;;
11203;SDS011;5659;49.408;11.116;2023-05-14T13:06:57;7.00;;;3.40;;
11203;SDS011;5659;49.408;11.116;2023-05-14T13:09:24;5.28;;;4.20;;
11203;SDS011;5659;49.408;11.116;2023-05-14T13:11:51;6.38;;;3.47;;
11203;SDS011;5659;49.408;11.116;2023-05-14T13:14:17;3.53;;;3.08;;
11203;SDS011;5659;49.408;11.116;2023-05-14T13:16:43;4.65;;;3.50;;
11203;SDS011;5659;49.408;11.116;2023-05-14T13:19:09;3.97;;;3.10;;
11203;SDS011;5659;49.408;11.116;2023-05-14T13:21:35;3.17;;;2.92;;
11203;SDS011;5659;49.408;11.116;2023-05-14T13:24:01;3.30;;;3.00;;
11203;SDS011;5659;49.408;11.116;2023-05-14T13:26:27;4.43;;;2.90;;
11203;SDS011;5659;49.408;11.116;2023-05-14T13:28:53;3.78;;;3.08;;
11203;SDS011;5659;49.408;11.116;2023-05-14T13:31:19;3.50;;;2.70;;
11203;SDS011;5659;49.408;11.116;2023-05-14T13:33:45;3.22;;;2.92;;
11203;SDS011;5659;49.408;11.116;2023-05-14T13:36:12;3.08;;;2.80;;
11203;SDS011;5659;49.408;11.116;2023-05-14T13:38:38;3.15;;;2.85;;
11203;SDS011;5659;49.408;11.116;2023-05-14T13:41:04;3.03;;;2.72;;
11203;SDS011;5659;49.408;11.116;2023-05-14T13:43:32;4.15;;;2.90;;
11203;SDS011;5659;49.408;11.116;2023-05-14T13:45:58;3.75;;;2.90;;
11203;SDS011;5659;49.408;11.116;2023-05-14T13:48:25;3.45;;;2.70;;
11203;SDS011;5659;49.408;11.116;2023-05-14T13:50:52;2.95;;;2.65;;
11203;SDS011;5659;49.408;11.116;2023-05-14T13:53:18;3.80;;;2.30;;
11203;SDS011;5659;49.408;11.116;2023-05-14T13:55:44;2.45;;;2.25;;
11203;SDS011;5659;49.408;11.116;2023-05-14T13:58:10;4.65;;;2.58;;
11203;SDS011;5659;49.408;11.116;2023-05-14T14:00:36;2.97;;;2.53;;
11203;SDS011;5659;49.408;11.116;2023-05-14T14:03:02;2.85;;;2.58;;
11203;SDS011;5659;49.408;11.116;2023-05-14T14:05:28;2.95;;;2.60;;
11203;SDS011;5659;49.408;11.116;2023-05-14T14:07:55;3.08;;;2.60;;
11203;SDS011;5659;49.408;11.116;2023-05-14T14:10:21;2.47;;;2.25;;
11203;SDS011;5659;49.408;11.116;2023-05-14T14:12:47;2.50;;;2.30;;
11203;SDS011;5659;49.408;11.116;2023-05-14T14:15:14;2.45;;;2.13;;
11203;SDS011;5659;49.408;11.116;2023-05-14T14:17:40;2.63;;;2.40;;
11203;SDS011;5659;49.408;11.116;2023-05-14T14:20:09;2.42;;;2.20;;
11203;SDS011;5659;49.408;11.116;2023-05-14T14:22:35;3.08;;;2.45;;
11203;SDS011;5659;49.408;11.116;2023-05-14T14:25:01;2.53;;;2.15;;
11203;SDS011;5659;49.408;11.116;2023-05-14T14:27:27;2.65;;;2.42;;
11203;SDS011;5659;49.408;11.116;2023-05-14T14:29:56;2.15;;;1.95;;
11203;SDS011;5659;49.408;11.116;2023-05-14T14:32:22;3.58;;;2.20;;
11203;SDS011;5659;49.408;11.116;2023-05-14T14:34:48;2.80;;;2.60;;
11203;SDS011;5659;49.408;11.116;2023-05-14T14:37:14;3.13;;;2.63;;
11203;SDS011;5659;49.408;11.116;2023-05-14T14:39:40;2.78;;;2.58;;
11203;SDS011;5659;49.408;11.116;2023-05-14T14:42:06;4.07;;;2.90;;
11203;SDS011;5659;49.408;11.116;2023-05-14T14:44:31;2.75;;;2.55;;
11203;SDS011;5659;49.408;11.116;2023-05-14T14:46:57;3.65;;;2.70;;
11203;SDS011;5659;49.408;11.116;2023-05-14T14:49:23;5.60;;;2.50;;
11203;SDS011;5659;49.408;11.116;2023-05-14T14:51:50;3.20;;;2.90;;
11203;SDS011;5659;49.408;11.116;2023-05-14T14:54:15;8.50;;;3.30;;
11203;SDS011;5659;49.408;11.116;2023-05-14T14:56:41;5.35;;;2.95;;
11203;SDS011;5659;49.408;11.116;2023-05-14T14:59:09;3.08;;;2.78;;
11203;SDS011;5659;49.408;11.116;2023-05-14T15:01:35;4.47;;;3.17;;
11203;SDS011;5659;49.408;11.116;2023-05-14T15:04:01;4.05;;;3.15;;
11203;SDS011;5659;49.408;11.116;2023-05-14T15:06:27;3.90;;;3.08;;
11203;SDS011;5659;49.408;11.116;2023-05-14T15:08:56;4.63;;;3.42;;
11203;SDS011;5659;49.408;11.116;2023-05-14T15:11:22;4.03;;;3.38;;
11203;SDS011;5659;49.408;11.116;2023-05-14T15:13:48;4.72;;;3.25;;
11203;SDS011;5659;49.408;11.116;2023-05-14T15:16:14;4.35;;;3.10;;
11203;SDS011;5659;49.408;11.116;2023-05-14T15:18:40;3.80;;;3.17;;
11203;SDS011;5659;49.408;11.116;2023-05-14T15:21:06;3.20;;;2.90;;
11203;SDS011;5659;49.408;11.116;2023-05-14T15:23:32;4.90;;;3.40;;
11203;SDS011;5659;49.408;11.116;2023-05-14T15:25:58;5.40;;;2.75;;
11203;SDS011;5659;49.408;11.116;2023-05-14T15:28:24;3.50;;;2.80;;